<?xml version="1.0" encoding="UTF-8" standalone="no" ?>
<gpx xmlns="http://www.topografix.com/GPX/1/1" xmlns:xsi="http://www.w3.org/2001/XMLSchema-instance" xsi:schemaLocation="http://www.topografix.com/GPX/1/1 http://www.topografix.com/GPX/1/1/gpx.xsd" version="1.1" creator="VisuGPX - https://www.visugpx.com">
  <metadata>
    <name>Cabanne du Bazet</name>
    <desc><![CDATA[Boucle au depart de portet d\'aspet ( village ) vers la cabane du bazet et retour par le col de bene]]></desc>
  </metadata>
  <trk>
    <name><![CDATA[ACTIVE LOG133959]]></name>
    <trkseg>
      <trkpt lat="42.92387" lon="0.84165">
        <ele>1482.617</ele>
        <time>2014-01-18T12:39:58Z</time>
      </trkpt>
      <trkpt lat="42.92374" lon="0.84153">
        <ele>1466.609</ele>
        <time>2014-01-18T12:40:24Z</time>
      </trkpt>
      <trkpt lat="42.92366" lon="0.8413">
        <ele>1465.415</ele>
        <time>2014-01-18T12:40:49Z</time>
      </trkpt>
      <trkpt lat="42.9236" lon="0.84105">
        <ele>1464.838</ele>
        <time>2014-01-18T12:41:10Z</time>
      </trkpt>
      <trkpt lat="42.92355" lon="0.8408">
        <ele>1464.303</ele>
        <time>2014-01-18T12:41:29Z</time>
      </trkpt>
      <trkpt lat="42.92355" lon="0.84054">
        <ele>1461.736</ele>
        <time>2014-01-18T12:41:50Z</time>
      </trkpt>
      <trkpt lat="42.92372" lon="0.84035">
        <ele>1457.446</ele>
        <time>2014-01-18T12:42:18Z</time>
      </trkpt>
      <trkpt lat="42.92383" lon="0.84015">
        <ele>1451.397</ele>
        <time>2014-01-18T12:42:43Z</time>
      </trkpt>
      <trkpt lat="42.92389" lon="0.8399">
        <ele>1446.33</ele>
        <time>2014-01-18T12:43:08Z</time>
      </trkpt>
      <trkpt lat="42.92413" lon="0.83977">
        <ele>1439.588</ele>
        <time>2014-01-18T12:43:42Z</time>
      </trkpt>
      <trkpt lat="42.92438" lon="0.8399">
        <ele>1434.422</ele>
        <time>2014-01-18T12:44:13Z</time>
      </trkpt>
      <trkpt lat="42.92445" lon="0.84008">
        <ele>1436.087</ele>
        <time>2014-01-18T12:45:04Z</time>
      </trkpt>
      <trkpt lat="42.92436" lon="0.84">
        <ele>1435.888</ele>
        <time>2014-01-18T12:45:42Z</time>
      </trkpt>
      <trkpt lat="42.92439" lon="0.83976">
        <ele>1430.708</ele>
        <time>2014-01-18T12:46:06Z</time>
      </trkpt>
      <trkpt lat="42.92437" lon="0.8395">
        <ele>1425.201</ele>
        <time>2014-01-18T12:46:31Z</time>
      </trkpt>
      <trkpt lat="42.92449" lon="0.83946">
        <ele>1421.474</ele>
        <time>2014-01-18T12:46:53Z</time>
      </trkpt>
      <trkpt lat="42.92474" lon="0.83967">
        <ele>1417.468</ele>
        <time>2014-01-18T12:47:25Z</time>
      </trkpt>
      <trkpt lat="42.92498" lon="0.83991">
        <ele>1413.413</ele>
        <time>2014-01-18T12:47:52Z</time>
      </trkpt>
      <trkpt lat="42.92519" lon="0.84013">
        <ele>1403.149</ele>
        <time>2014-01-18T12:48:41Z</time>
      </trkpt>
      <trkpt lat="42.92533" lon="0.84037">
        <ele>1396.122</ele>
        <time>2014-01-18T12:49:13Z</time>
      </trkpt>
      <trkpt lat="42.92551" lon="0.84068">
        <ele>1386.948</ele>
        <time>2014-01-18T12:49:56Z</time>
      </trkpt>
      <trkpt lat="42.92575" lon="0.84083">
        <ele>1379.97</ele>
        <time>2014-01-18T12:50:37Z</time>
      </trkpt>
      <trkpt lat="42.92577" lon="0.84094">
        <ele>1376.72</ele>
        <time>2014-01-18T12:51:23Z</time>
      </trkpt>
      <trkpt lat="42.92618" lon="0.84091">
        <ele>1369.663</ele>
        <time>2014-01-18T12:54:22Z</time>
      </trkpt>
      <trkpt lat="42.92639" lon="0.8409">
        <ele>1364.62</ele>
        <time>2014-01-18T12:54:47Z</time>
      </trkpt>
      <trkpt lat="42.92658" lon="0.84086">
        <ele>1358.358</ele>
        <time>2014-01-18T12:55:16Z</time>
      </trkpt>
      <trkpt lat="42.9268" lon="0.84088">
        <ele>1354.916</ele>
        <time>2014-01-18T12:55:39Z</time>
      </trkpt>
      <trkpt lat="42.92704" lon="0.84089">
        <ele>1350.202</ele>
        <time>2014-01-18T12:56:01Z</time>
      </trkpt>
      <trkpt lat="42.9273" lon="0.8409">
        <ele>1342.797</ele>
        <time>2014-01-18T12:56:32Z</time>
      </trkpt>
      <trkpt lat="42.92761" lon="0.84097">
        <ele>1337.593</ele>
        <time>2014-01-18T12:57:02Z</time>
      </trkpt>
      <trkpt lat="42.92783" lon="0.84109">
        <ele>1331.091</ele>
        <time>2014-01-18T12:57:37Z</time>
      </trkpt>
      <trkpt lat="42.92816" lon="0.84129">
        <ele>1326.069</ele>
        <time>2014-01-18T12:58:13Z</time>
      </trkpt>
      <trkpt lat="42.92841" lon="0.84146">
        <ele>1318.997</ele>
        <time>2014-01-18T12:59:29Z</time>
      </trkpt>
      <trkpt lat="42.92867" lon="0.84157">
        <ele>1313.904</ele>
        <time>2014-01-18T13:00:01Z</time>
      </trkpt>
      <trkpt lat="42.92887" lon="0.84158">
        <ele>1307.909</ele>
        <time>2014-01-18T13:00:37Z</time>
      </trkpt>
      <trkpt lat="42.92914" lon="0.84158">
        <ele>1301.666</ele>
        <time>2014-01-18T13:01:09Z</time>
      </trkpt>
      <trkpt lat="42.92933" lon="0.84157">
        <ele>1295.33</ele>
        <time>2014-01-18T13:02:06Z</time>
      </trkpt>
      <trkpt lat="42.92956" lon="0.84162">
        <ele>1289.261</ele>
        <time>2014-01-18T13:02:40Z</time>
      </trkpt>
      <trkpt lat="42.92978" lon="0.8416">
        <ele>1283.58</ele>
        <time>2014-01-18T13:03:17Z</time>
      </trkpt>
      <trkpt lat="42.93001" lon="0.84181">
        <ele>1271.818</ele>
        <time>2014-01-18T13:04:32Z</time>
      </trkpt>
      <trkpt lat="42.93024" lon="0.84198">
        <ele>1264.149</ele>
        <time>2014-01-18T13:05:07Z</time>
      </trkpt>
      <trkpt lat="42.93047" lon="0.84205">
        <ele>1255.63</ele>
        <time>2014-01-18T13:05:48Z</time>
      </trkpt>
      <trkpt lat="42.93067" lon="0.84192">
        <ele>1249.211</ele>
        <time>2014-01-18T13:06:21Z</time>
      </trkpt>
      <trkpt lat="42.93081" lon="0.84173">
        <ele>1244.992</ele>
        <time>2014-01-18T13:06:51Z</time>
      </trkpt>
      <trkpt lat="42.93097" lon="0.84182">
        <ele>1240.683</ele>
        <time>2014-01-18T13:07:18Z</time>
      </trkpt>
      <trkpt lat="42.93101" lon="0.84211">
        <ele>1234.083</ele>
        <time>2014-01-18T13:07:49Z</time>
      </trkpt>
      <trkpt lat="42.93116" lon="0.84239">
        <ele>1225.66</ele>
        <time>2014-01-18T13:08:30Z</time>
      </trkpt>
      <trkpt lat="42.9315" lon="0.84239">
        <ele>1215.224</ele>
        <time>2014-01-18T13:09:12Z</time>
      </trkpt>
      <trkpt lat="42.93163" lon="0.84257">
        <ele>1211.155</ele>
        <time>2014-01-18T13:10:10Z</time>
      </trkpt>
      <trkpt lat="42.93157" lon="0.84257">
        <ele>1210.465</ele>
        <time>2014-01-18T13:10:54Z</time>
      </trkpt>
      <trkpt lat="42.93167" lon="0.84254">
        <ele>1210.834</ele>
        <time>2014-01-18T13:12:08Z</time>
      </trkpt>
      <trkpt lat="42.93184" lon="0.84273">
        <ele>1211.641</ele>
        <time>2014-01-18T13:12:39Z</time>
      </trkpt>
      <trkpt lat="42.932" lon="0.84292">
        <ele>1213.516</ele>
        <time>2014-01-18T13:13:00Z</time>
      </trkpt>
      <trkpt lat="42.93215" lon="0.84315">
        <ele>1215.743</ele>
        <time>2014-01-18T13:13:32Z</time>
      </trkpt>
      <trkpt lat="42.93228" lon="0.84336">
        <ele>1216.226</ele>
        <time>2014-01-18T13:14:08Z</time>
      </trkpt>
      <trkpt lat="42.93245" lon="0.8435">
        <ele>1215.039</ele>
        <time>2014-01-18T13:14:28Z</time>
      </trkpt>
      <trkpt lat="42.93265" lon="0.84356">
        <ele>1214.537</ele>
        <time>2014-01-18T13:14:48Z</time>
      </trkpt>
      <trkpt lat="42.93287" lon="0.84375">
        <ele>1218.244</ele>
        <time>2014-01-18T13:15:16Z</time>
      </trkpt>
      <trkpt lat="42.93312" lon="0.84402">
        <ele>1218.763</ele>
        <time>2014-01-18T13:15:44Z</time>
      </trkpt>
      <trkpt lat="42.93332" lon="0.84424">
        <ele>1221.625</ele>
        <time>2014-01-18T13:16:13Z</time>
      </trkpt>
      <trkpt lat="42.93343" lon="0.84452">
        <ele>1222.656</ele>
        <time>2014-01-18T13:16:37Z</time>
      </trkpt>
      <trkpt lat="42.93355" lon="0.84483">
        <ele>1225.88</ele>
        <time>2014-01-18T13:17:04Z</time>
      </trkpt>
      <trkpt lat="42.93372" lon="0.84514">
        <ele>1226.987</ele>
        <time>2014-01-18T13:17:36Z</time>
      </trkpt>
      <trkpt lat="42.93381" lon="0.84552">
        <ele>1227.564</ele>
        <time>2014-01-18T13:17:57Z</time>
      </trkpt>
      <trkpt lat="42.93386" lon="0.8458">
        <ele>1228.878</ele>
        <time>2014-01-18T13:18:18Z</time>
      </trkpt>
      <trkpt lat="42.93399" lon="0.84604">
        <ele>1227.796</ele>
        <time>2014-01-18T13:18:34Z</time>
      </trkpt>
      <trkpt lat="42.93422" lon="0.8461">
        <ele>1226.417</ele>
        <time>2014-01-18T13:18:57Z</time>
      </trkpt>
      <trkpt lat="42.93439" lon="0.84618">
        <ele>1225.111</ele>
        <time>2014-01-18T13:19:23Z</time>
      </trkpt>
      <trkpt lat="42.9346" lon="0.84638">
        <ele>1223.549</ele>
        <time>2014-01-18T13:19:41Z</time>
      </trkpt>
      <trkpt lat="42.93474" lon="0.84657">
        <ele>1221.43</ele>
        <time>2014-01-18T13:20:00Z</time>
      </trkpt>
      <trkpt lat="42.93481" lon="0.84681">
        <ele>1219.691</ele>
        <time>2014-01-18T13:20:18Z</time>
      </trkpt>
      <trkpt lat="42.93489" lon="0.84706">
        <ele>1218.547</ele>
        <time>2014-01-18T13:20:34Z</time>
      </trkpt>
      <trkpt lat="42.93498" lon="0.84726">
        <ele>1218.114</ele>
        <time>2014-01-18T13:20:49Z</time>
      </trkpt>
      <trkpt lat="42.93504" lon="0.84746">
        <ele>1215.945</ele>
        <time>2014-01-18T13:21:04Z</time>
      </trkpt>
      <trkpt lat="42.93511" lon="0.84771">
        <ele>1215.115</ele>
        <time>2014-01-18T13:21:18Z</time>
      </trkpt>
      <trkpt lat="42.93522" lon="0.84789">
        <ele>1214.111</ele>
        <time>2014-01-18T13:21:32Z</time>
      </trkpt>
      <trkpt lat="42.93526" lon="0.84817">
        <ele>1212.821</ele>
        <time>2014-01-18T13:21:50Z</time>
      </trkpt>
      <trkpt lat="42.93527" lon="0.84842">
        <ele>1211.719</ele>
        <time>2014-01-18T13:22:03Z</time>
      </trkpt>
      <trkpt lat="42.93538" lon="0.84866">
        <ele>1209.067</ele>
        <time>2014-01-18T13:22:19Z</time>
      </trkpt>
      <trkpt lat="42.93542" lon="0.84889">
        <ele>1206.046</ele>
        <time>2014-01-18T13:22:36Z</time>
      </trkpt>
      <trkpt lat="42.93558" lon="0.8491">
        <ele>1201.821</ele>
        <time>2014-01-18T13:22:56Z</time>
      </trkpt>
      <trkpt lat="42.93568" lon="0.84933">
        <ele>1197.343</ele>
        <time>2014-01-18T13:23:19Z</time>
      </trkpt>
      <trkpt lat="42.93577" lon="0.84957">
        <ele>1195.031</ele>
        <time>2014-01-18T13:23:42Z</time>
      </trkpt>
      <trkpt lat="42.93589" lon="0.84975">
        <ele>1190.819</ele>
        <time>2014-01-18T13:24:01Z</time>
      </trkpt>
      <trkpt lat="42.93599" lon="0.84993">
        <ele>1186.285</ele>
        <time>2014-01-18T13:24:20Z</time>
      </trkpt>
      <trkpt lat="42.93631" lon="0.85006">
        <ele>1178.936</ele>
        <time>2014-01-18T13:24:54Z</time>
      </trkpt>
      <trkpt lat="42.93682" lon="0.85006">
        <ele>1162.004</ele>
        <time>2014-01-18T13:26:01Z</time>
      </trkpt>
      <trkpt lat="42.93699" lon="0.85034">
        <ele>1155.805</ele>
        <time>2014-01-18T13:26:33Z</time>
      </trkpt>
      <trkpt lat="42.93711" lon="0.85054">
        <ele>1150.341</ele>
        <time>2014-01-18T13:27:09Z</time>
      </trkpt>
      <trkpt lat="42.93733" lon="0.85059">
        <ele>1145.992</ele>
        <time>2014-01-18T13:27:36Z</time>
      </trkpt>
      <trkpt lat="42.93755" lon="0.8507">
        <ele>1142.927</ele>
        <time>2014-01-18T13:27:59Z</time>
      </trkpt>
      <trkpt lat="42.93788" lon="0.85078">
        <ele>1140.218</ele>
        <time>2014-01-18T13:28:22Z</time>
      </trkpt>
      <trkpt lat="42.9381" lon="0.85097">
        <ele>1138.178</ele>
        <time>2014-01-18T13:28:44Z</time>
      </trkpt>
      <trkpt lat="42.93825" lon="0.85122">
        <ele>1135.372</ele>
        <time>2014-01-18T13:29:05Z</time>
      </trkpt>
      <trkpt lat="42.93851" lon="0.85129">
        <ele>1132.109</ele>
        <time>2014-01-18T13:29:27Z</time>
      </trkpt>
      <trkpt lat="42.93859" lon="0.85158">
        <ele>1128.467</ele>
        <time>2014-01-18T13:29:55Z</time>
      </trkpt>
      <trkpt lat="42.93887" lon="0.8518">
        <ele>1124.021</ele>
        <time>2014-01-18T13:30:21Z</time>
      </trkpt>
      <trkpt lat="42.93905" lon="0.85194">
        <ele>1119.97</ele>
        <time>2014-01-18T13:30:44Z</time>
      </trkpt>
      <trkpt lat="42.93931" lon="0.85197">
        <ele>1117.557</ele>
        <time>2014-01-18T13:31:02Z</time>
      </trkpt>
      <trkpt lat="42.93944" lon="0.85204">
        <ele>1115.041</ele>
        <time>2014-01-18T13:31:21Z</time>
      </trkpt>
      <trkpt lat="42.93941" lon="0.85206">
        <ele>1114.956</ele>
        <time>2014-01-18T13:31:42Z</time>
      </trkpt>
      <trkpt lat="42.93951" lon="0.85209">
        <ele>1113.704</ele>
        <time>2014-01-18T13:32:07Z</time>
      </trkpt>
      <trkpt lat="42.93969" lon="0.8522">
        <ele>1111.529</ele>
        <time>2014-01-18T13:32:28Z</time>
      </trkpt>
      <trkpt lat="42.93973" lon="0.85246">
        <ele>1105.206</ele>
        <time>2014-01-18T13:32:48Z</time>
      </trkpt>
      <trkpt lat="42.93977" lon="0.85274">
        <ele>1100.729</ele>
        <time>2014-01-18T13:33:11Z</time>
      </trkpt>
      <trkpt lat="42.93985" lon="0.85297">
        <ele>1096.344</ele>
        <time>2014-01-18T13:34:22Z</time>
      </trkpt>
      <trkpt lat="42.93996" lon="0.85319">
        <ele>1091.423</ele>
        <time>2014-01-18T13:34:54Z</time>
      </trkpt>
      <trkpt lat="42.94011" lon="0.85337">
        <ele>1085.236</ele>
        <time>2014-01-18T13:35:29Z</time>
      </trkpt>
      <trkpt lat="42.94037" lon="0.85356">
        <ele>1077.396</ele>
        <time>2014-01-18T13:36:10Z</time>
      </trkpt>
      <trkpt lat="42.94057" lon="0.85383">
        <ele>1072.492</ele>
        <time>2014-01-18T13:36:42Z</time>
      </trkpt>
      <trkpt lat="42.94063" lon="0.85408">
        <ele>1067.76</ele>
        <time>2014-01-18T13:37:18Z</time>
      </trkpt>
      <trkpt lat="42.94077" lon="0.8544">
        <ele>1060.808</ele>
        <time>2014-01-18T13:37:58Z</time>
      </trkpt>
      <trkpt lat="42.94087" lon="0.85477">
        <ele>1056.47</ele>
        <time>2014-01-18T13:38:32Z</time>
      </trkpt>
      <trkpt lat="42.9409" lon="0.85517">
        <ele>1051.209</ele>
        <time>2014-01-18T13:39:01Z</time>
      </trkpt>
      <trkpt lat="42.9409" lon="0.85544">
        <ele>1047.996</ele>
        <time>2014-01-18T13:39:23Z</time>
      </trkpt>
      <trkpt lat="42.94089" lon="0.85567">
        <ele>1044.711</ele>
        <time>2014-01-18T13:39:50Z</time>
      </trkpt>
      <trkpt lat="42.94092" lon="0.85593">
        <ele>1041.524</ele>
        <time>2014-01-18T13:40:19Z</time>
      </trkpt>
      <trkpt lat="42.94089" lon="0.85624">
        <ele>1037.664</ele>
        <time>2014-01-18T13:40:48Z</time>
      </trkpt>
      <trkpt lat="42.9408" lon="0.85656">
        <ele>1032.513</ele>
        <time>2014-01-18T13:41:17Z</time>
      </trkpt>
      <trkpt lat="42.9407" lon="0.85688">
        <ele>1027.718</ele>
        <time>2014-01-18T13:41:52Z</time>
      </trkpt>
      <trkpt lat="42.94058" lon="0.85718">
        <ele>1022.557</ele>
        <time>2014-01-18T13:42:23Z</time>
      </trkpt>
      <trkpt lat="42.94056" lon="0.85745">
        <ele>1020.094</ele>
        <time>2014-01-18T13:42:44Z</time>
      </trkpt>
      <trkpt lat="42.94053" lon="0.85772">
        <ele>1017.549</ele>
        <time>2014-01-18T13:43:07Z</time>
      </trkpt>
      <trkpt lat="42.94053" lon="0.85803">
        <ele>1014.743</ele>
        <time>2014-01-18T13:43:32Z</time>
      </trkpt>
      <trkpt lat="42.94053" lon="0.85832">
        <ele>1011.456</ele>
        <time>2014-01-18T13:44:28Z</time>
      </trkpt>
      <trkpt lat="42.94052" lon="0.85866">
        <ele>1006.454</ele>
        <time>2014-01-18T13:44:58Z</time>
      </trkpt>
      <trkpt lat="42.94057" lon="0.859">
        <ele>1003.322</ele>
        <time>2014-01-18T13:45:20Z</time>
      </trkpt>
      <trkpt lat="42.94064" lon="0.85934">
        <ele>999.495</ele>
        <time>2014-01-18T13:45:44Z</time>
      </trkpt>
      <trkpt lat="42.94076" lon="0.85964">
        <ele>995.047</ele>
        <time>2014-01-18T13:46:07Z</time>
      </trkpt>
      <trkpt lat="42.94092" lon="0.85986">
        <ele>991.277</ele>
        <time>2014-01-18T13:46:39Z</time>
      </trkpt>
      <trkpt lat="42.94108" lon="0.86004">
        <ele>988.255</ele>
        <time>2014-01-18T13:47:16Z</time>
      </trkpt>
      <trkpt lat="42.94129" lon="0.86024">
        <ele>983.234</ele>
        <time>2014-01-18T13:47:44Z</time>
      </trkpt>
      <trkpt lat="42.94143" lon="0.86044">
        <ele>977.829</ele>
        <time>2014-01-18T13:48:17Z</time>
      </trkpt>
      <trkpt lat="42.9416" lon="0.86077">
        <ele>970.793</ele>
        <time>2014-01-18T13:49:20Z</time>
      </trkpt>
      <trkpt lat="42.94169" lon="0.86102">
        <ele>965.519</ele>
        <time>2014-01-18T13:49:49Z</time>
      </trkpt>
      <trkpt lat="42.94186" lon="0.86125">
        <ele>958.273</ele>
        <time>2014-01-18T13:50:59Z</time>
      </trkpt>
      <trkpt lat="42.94196" lon="0.86153">
        <ele>952.666</ele>
        <time>2014-01-18T13:51:34Z</time>
      </trkpt>
      <trkpt lat="42.94199" lon="0.8617">
        <ele>950.116</ele>
        <time>2014-01-18T13:52:48Z</time>
      </trkpt>
      <trkpt lat="42.94208" lon="0.86195">
        <ele>944.582</ele>
        <time>2014-01-18T13:53:14Z</time>
      </trkpt>
      <trkpt lat="42.94225" lon="0.86192">
        <ele>939.625</ele>
        <time>2014-01-18T13:53:49Z</time>
      </trkpt>
      <trkpt lat="42.9425" lon="0.8618">
        <ele>934.906</ele>
        <time>2014-01-18T13:54:17Z</time>
      </trkpt>
      <trkpt lat="42.94273" lon="0.86182">
        <ele>930.805</ele>
        <time>2014-01-18T13:54:41Z</time>
      </trkpt>
      <trkpt lat="42.94261" lon="0.86177">
        <ele>930.704</ele>
        <time>2014-01-18T13:56:09Z</time>
      </trkpt>
      <trkpt lat="42.94266" lon="0.86175">
        <ele>930.75</ele>
        <time>2014-01-18T13:57:00Z</time>
      </trkpt>
      <trkpt lat="42.94264" lon="0.86169">
        <ele>930.247</ele>
        <time>2014-01-18T13:57:40Z</time>
      </trkpt>
      <trkpt lat="42.94265" lon="0.86162">
        <ele>929.993</ele>
        <time>2014-01-18T13:57:59Z</time>
      </trkpt>
      <trkpt lat="42.94266" lon="0.86149">
        <ele>929.956</ele>
        <time>2014-01-18T13:58:18Z</time>
      </trkpt>
      <trkpt lat="42.94277" lon="0.86158">
        <ele>929.622</ele>
        <time>2014-01-18T13:58:34Z</time>
      </trkpt>
      <trkpt lat="42.94277" lon="0.86155">
        <ele>929.823</ele>
        <time>2014-01-18T13:58:50Z</time>
      </trkpt>
      <trkpt lat="42.94281" lon="0.86153">
        <ele>930.127</ele>
        <time>2014-01-18T13:59:08Z</time>
      </trkpt>
      <trkpt lat="42.94281" lon="0.86146">
        <ele>929.944</ele>
        <time>2014-01-18T13:59:21Z</time>
      </trkpt>
      <trkpt lat="42.94286" lon="0.86136">
        <ele>929.669</ele>
        <time>2014-01-18T13:59:35Z</time>
      </trkpt>
      <trkpt lat="42.94283" lon="0.86131">
        <ele>929.992</ele>
        <time>2014-01-18T13:59:47Z</time>
      </trkpt>
      <trkpt lat="42.94282" lon="0.86116">
        <ele>929.725</ele>
        <time>2014-01-18T14:00:00Z</time>
      </trkpt>
      <trkpt lat="42.94283" lon="0.86115">
        <ele>930.145</ele>
        <time>2014-01-18T14:00:18Z</time>
      </trkpt>
      <trkpt lat="42.94274" lon="0.86162">
        <ele>928.473</ele>
        <time>2014-01-18T14:02:39Z</time>
      </trkpt>
      <trkpt lat="42.94269" lon="0.86198">
        <ele>925.157</ele>
        <time>2014-01-18T14:03:00Z</time>
      </trkpt>
      <trkpt lat="42.94266" lon="0.8623">
        <ele>921.008</ele>
        <time>2014-01-18T14:03:25Z</time>
      </trkpt>
      <trkpt lat="42.94265" lon="0.8626">
        <ele>916.257</ele>
        <time>2014-01-18T14:03:46Z</time>
      </trkpt>
      <trkpt lat="42.94259" lon="0.86294">
        <ele>911.472</ele>
        <time>2014-01-18T14:04:06Z</time>
      </trkpt>
      <trkpt lat="42.9425" lon="0.86331">
        <ele>906.583</ele>
        <time>2014-01-18T14:04:29Z</time>
      </trkpt>
      <trkpt lat="42.94243" lon="0.86364">
        <ele>901.618</ele>
        <time>2014-01-18T14:05:07Z</time>
      </trkpt>
      <trkpt lat="42.94238" lon="0.8639">
        <ele>897.172</ele>
        <time>2014-01-18T14:05:27Z</time>
      </trkpt>
      <trkpt lat="42.94227" lon="0.86412">
        <ele>892.876</ele>
        <time>2014-01-18T14:05:46Z</time>
      </trkpt>
      <trkpt lat="42.94211" lon="0.86427">
        <ele>888.232</ele>
        <time>2014-01-18T14:06:07Z</time>
      </trkpt>
      <trkpt lat="42.94188" lon="0.86437">
        <ele>884.369</ele>
        <time>2014-01-18T14:06:28Z</time>
      </trkpt>
      <trkpt lat="42.94168" lon="0.86444">
        <ele>881.156</ele>
        <time>2014-01-18T14:06:47Z</time>
      </trkpt>
      <trkpt lat="42.94149" lon="0.86452">
        <ele>876.796</ele>
        <time>2014-01-18T14:07:10Z</time>
      </trkpt>
      <trkpt lat="42.9413" lon="0.86468">
        <ele>873.289</ele>
        <time>2014-01-18T14:07:31Z</time>
      </trkpt>
      <trkpt lat="42.94123" lon="0.8649">
        <ele>870.469</ele>
        <time>2014-01-18T14:08:28Z</time>
      </trkpt>
      <trkpt lat="42.94114" lon="0.86511">
        <ele>868.673</ele>
        <time>2014-01-18T14:08:47Z</time>
      </trkpt>
      <trkpt lat="42.9411" lon="0.86537">
        <ele>866.657</ele>
        <time>2014-01-18T14:09:06Z</time>
      </trkpt>
      <trkpt lat="42.94097" lon="0.86556">
        <ele>864.718</ele>
        <time>2014-01-18T14:09:26Z</time>
      </trkpt>
      <trkpt lat="42.9408" lon="0.86574">
        <ele>863.307</ele>
        <time>2014-01-18T14:09:45Z</time>
      </trkpt>
      <trkpt lat="42.94064" lon="0.86587">
        <ele>861.871</ele>
        <time>2014-01-18T14:10:03Z</time>
      </trkpt>
      <trkpt lat="42.94045" lon="0.86596">
        <ele>860.472</ele>
        <time>2014-01-18T14:10:22Z</time>
      </trkpt>
      <trkpt lat="42.94034" lon="0.86618">
        <ele>859.379</ele>
        <time>2014-01-18T14:10:40Z</time>
      </trkpt>
      <trkpt lat="42.94025" lon="0.86642">
        <ele>858.313</ele>
        <time>2014-01-18T14:10:59Z</time>
      </trkpt>
      <trkpt lat="42.94015" lon="0.86664">
        <ele>857.403</ele>
        <time>2014-01-18T14:11:15Z</time>
      </trkpt>
      <trkpt lat="42.94004" lon="0.86684">
        <ele>856.401</ele>
        <time>2014-01-18T14:11:33Z</time>
      </trkpt>
      <trkpt lat="42.93991" lon="0.86701">
        <ele>855.13</ele>
        <time>2014-01-18T14:11:50Z</time>
      </trkpt>
      <trkpt lat="42.93975" lon="0.86719">
        <ele>854.006</ele>
        <time>2014-01-18T14:12:08Z</time>
      </trkpt>
      <trkpt lat="42.93962" lon="0.8673">
        <ele>853.332</ele>
        <time>2014-01-18T14:13:02Z</time>
      </trkpt>
    </trkseg>
  </trk>
</gpx>